createdAt,value
2022-08-16T00:01:34.231Z,72.90
2022-08-16T00:05:25.265Z,72.90
2022-08-16T00:09:10.764Z,73.00
2022-08-16T00:12:53.352Z,73.00
2022-08-16T00:17:05.779Z,73.00
2022-08-16T00:20:41.395Z,73.10
2022-08-16T00:24:32.827Z,73.30
2022-08-16T00:28:15.437Z,73.10
2022-08-16T00:32:05.501Z,73.10
2022-08-16T00:35:47.865Z,73.30
2022-08-16T00:39:31.710Z,73.80
2022-08-16T00:43:21.256Z,74.30
2022-08-16T00:47:10.052Z,74.20
2022-08-16T00:50:55.486Z,74.80
2022-08-16T00:54:38.150Z,75.60
2022-08-16T00:58:34.283Z,75.80
2022-08-16T01:02:30.318Z,75.90
2022-08-16T01:06:14.513Z,76.00
2022-08-16T01:10:17.031Z,75.80
2022-08-16T01:14:25.078Z,76.20
2022-08-16T01:18:39.814Z,76.00
2022-08-16T01:22:49.469Z,76.70
2022-08-16T01:26:36.163Z,76.50
2022-08-16T01:30:26.840Z,76.80
2022-08-16T01:34:08.895Z,76.70
2022-08-16T01:38:28.471Z,76.70
2022-08-16T01:42:13.153Z,75.50
2022-08-16T01:46:37.424Z,76.10
2022-08-16T01:50:42.630Z,76.10
2022-08-16T01:54:08.532Z,76.50
2022-08-16T01:57:53.776Z,77.50
2022-08-16T02:01:38.193Z,78.00
2022-08-16T02:05:21.233Z,77.90
2022-08-16T02:09:07.307Z,78.00
2022-08-16T02:12:59.863Z,78.40
2022-08-16T02:16:44.706Z,79.00
2022-08-16T02:20:29.789Z,79.20
2022-08-16T02:24:17.613Z,79.60
2022-08-16T02:28:17.361Z,79.60
2022-08-16T02:32:04.093Z,79.40
2022-08-16T02:36:03.495Z,79.70
2022-08-16T02:39:46.394Z,80.30
2022-08-16T02:43:36.797Z,80.80
2022-08-16T02:47:25.567Z,81.30
2022-08-16T02:51:11.617Z,81.60
2022-08-16T02:54:55.223Z,82.20
2022-08-16T02:58:39.047Z,82.30
2022-08-16T03:02:20.943Z,82.70
2022-08-16T03:06:42.068Z,82.80
2022-08-16T03:10:19.696Z,82.70
2022-08-16T03:14:05.083Z,82.70
2022-08-16T03:17:53.758Z,82.80
2022-08-16T03:21:38.112Z,82.40
2022-08-16T03:25:20.560Z,79.30
2022-08-16T03:29:04.599Z,82.90
2022-08-16T03:32:51.493Z,83.20
2022-08-16T03:36:33.827Z,83.70
2022-08-16T03:40:31.835Z,83.80
2022-08-16T03:44:44.121Z,83.90
2022-08-16T03:48:18.215Z,84.00
2022-08-16T03:52:02.015Z,84.70
2022-08-16T03:55:45.780Z,85.00
2022-08-16T03:59:29.477Z,85.00
2022-08-16T04:03:12.232Z,85.30
2022-08-16T04:06:54.091Z,85.70
2022-08-16T04:10:38.134Z,85.70
2022-08-16T04:14:32.459Z,85.50
2022-08-16T04:18:16.341Z,85.20
2022-08-16T04:22:00.835Z,85.10
2022-08-16T04:25:43.510Z,85.10
2022-08-16T04:29:43.742Z,85.30
2022-08-16T04:33:27.453Z,85.50
2022-08-16T04:37:09.907Z,85.70
2022-08-16T04:40:51.834Z,85.70
2022-08-16T04:44:53.983Z,85.90
2022-08-16T04:48:37.168Z,85.80
2022-08-16T04:52:34.771Z,85.90
2022-08-16T04:56:19.152Z,86.00
2022-08-16T05:00:31.951Z,86.20
2022-08-16T05:04:09.428Z,86.20
2022-08-16T05:08:29.131Z,86.40
2022-08-16T05:12:04.344Z,86.40
2022-08-16T05:15:47.193Z,86.60
2022-08-16T05:19:35.866Z,86.50
2022-08-16T05:23:18.775Z,86.30
2022-08-16T05:27:11.520Z,86.40
2022-08-16T05:30:54.112Z,86.50
2022-08-16T05:34:36.264Z,86.50
2022-08-16T05:38:31.030Z,86.40
2022-08-16T05:42:16.819Z,86.40
2022-08-16T05:46:01.881Z,86.50
2022-08-16T05:49:43.852Z,86.40
2022-08-16T05:53:25.769Z,86.40
2022-08-16T05:57:08.747Z,86.70
2022-08-16T06:00:56.322Z,87.10
2022-08-16T06:04:44.971Z,87.10
2022-08-16T06:08:32.133Z,86.90
2022-08-16T06:12:27.177Z,87.00
2022-08-16T06:16:18.173Z,87.10
2022-08-16T06:20:00.545Z,87.10
2022-08-16T06:23:42.411Z,87.40
2022-08-16T06:27:24.524Z,87.60
2022-08-16T06:31:11.962Z,87.70
2022-08-16T06:34:57.499Z,87.70
2022-08-16T06:38:52.277Z,87.80
2022-08-16T06:42:47.601Z,87.60
2022-08-16T06:46:37.642Z,87.80
2022-08-16T06:50:22.157Z,87.60
2022-08-16T06:54:13.934Z,87.90
2022-08-16T06:57:56.363Z,87.60
2022-08-16T07:01:46.114Z,87.90
2022-08-16T07:05:41.513Z,87.80
2022-08-16T07:09:25.215Z,88.50
2022-08-16T07:13:11.925Z,88.10
2022-08-16T07:16:58.879Z,88.30
2022-08-16T07:20:47.978Z,88.50
2022-08-16T07:24:31.412Z,89.30
2022-08-16T07:28:20.700Z,88.70
2022-08-16T07:32:03.713Z,89.50
2022-08-16T07:35:49.735Z,88.70
2022-08-16T07:39:33.951Z,88.80
2022-08-16T07:43:16.068Z,88.70
2022-08-16T07:46:58.108Z,88.50
2022-08-16T07:50:56.727Z,88.60
2022-08-16T07:54:45.606Z,88.50
2022-08-16T07:58:33.773Z,88.20
2022-08-16T08:02:20.253Z,88.00
2022-08-16T08:06:03.483Z,88.00
2022-08-16T08:09:45.843Z,87.90
2022-08-16T08:13:41.951Z,87.30
2022-08-16T08:17:24.857Z,87.00
2022-08-16T08:21:27.433Z,87.20
2022-08-16T08:25:53.932Z,86.50
2022-08-16T08:29:37.616Z,87.50
2022-08-16T08:33:21.808Z,86.60
2022-08-16T08:37:05.548Z,85.00
2022-08-16T08:40:47.604Z,85.40
2022-08-16T08:44:30.717Z,86.20
2022-08-16T08:48:33.290Z,85.60
2022-08-16T08:52:34.942Z,85.30
2022-08-16T08:56:23.806Z,84.40
2022-08-16T09:00:13.163Z,84.70
2022-08-16T09:03:55.940Z,85.00
2022-08-16T09:08:00.643Z,83.20
2022-08-16T09:11:47.300Z,82.70
2022-08-16T09:15:33.068Z,83.00
2022-08-16T09:19:15.452Z,82.50
2022-08-16T09:23:01.156Z,83.70
2022-08-16T09:26:45.865Z,83.60
2022-08-16T09:30:34.728Z,82.60
2022-08-16T09:34:25.579Z,83.90
2022-08-16T09:38:08.452Z,82.30
2022-08-16T09:41:53.591Z,82.30
2022-08-16T09:45:39.167Z,81.70
2022-08-16T09:49:21.378Z,80.80
2022-08-16T09:53:05.830Z,80.30
2022-08-16T09:56:52.512Z,81.70
2022-08-16T10:00:44.013Z,80.90
2022-08-16T10:04:29.901Z,81.80
2022-08-16T10:08:25.746Z,81.50
2022-08-16T10:12:28.235Z,81.10
2022-08-16T10:19:56.692Z,81.10
2022-08-16T10:23:38.517Z,80.20
2022-08-16T10:27:28.900Z,80.50
2022-08-16T10:31:16.889Z,81.50
2022-08-16T10:35:15.031Z,80.60
2022-08-16T10:39:00.593Z,80.80
2022-08-16T10:42:42.532Z,80.70
2022-08-16T10:46:39.396Z,80.00
2022-08-16T10:50:23.528Z,81.10
2022-08-16T10:54:06.078Z,80.20
2022-08-16T10:58:11.708Z,78.80
2022-08-16T11:05:59.467Z,79.80
2022-08-16T11:09:43.818Z,79.20
2022-08-16T11:17:32.666Z,78.30
2022-08-16T11:21:29.209Z,79.00
2022-08-16T11:25:57.899Z,78.40
2022-08-16T11:29:15.588Z,77.70
2022-08-16T11:32:57.819Z,77.60
2022-08-16T11:36:53.824Z,77.20
2022-08-16T11:40:52.222Z,76.00
2022-08-16T11:44:52.382Z,74.70
2022-08-16T11:48:35.137Z,74.50
2022-08-16T11:52:17.894Z,73.20
2022-08-16T11:56:04.316Z,71.50
2022-08-16T11:59:48.073Z,71.90
2022-08-16T12:03:34.467Z,70.00
2022-08-16T12:07:16.895Z,69.90
2022-08-16T12:11:02.385Z,69.70
2022-08-16T12:14:44.500Z,67.50
2022-08-16T12:18:27.761Z,66.20
2022-08-16T12:22:19.075Z,67.00
2022-08-16T12:26:02.160Z,66.20
2022-08-16T12:29:48.929Z,64.80
2022-08-16T12:33:32.317Z,64.00
2022-08-16T12:37:24.836Z,64.00
2022-08-16T12:41:10.121Z,61.30
2022-08-16T12:44:52.108Z,59.20
2022-08-16T12:48:53.623Z,54.70
2022-08-16T12:52:38.843Z,52.30
2022-08-16T12:56:32.708Z,51.20
2022-08-16T13:00:26.768Z,49.50
2022-08-16T13:04:20.665Z,47.00
2022-08-16T13:08:03.624Z,44.20
2022-08-16T13:11:59.805Z,43.00
2022-08-16T13:15:57.215Z,43.00
2022-08-16T13:23:44.711Z,41.80
2022-08-16T13:28:03.410Z,42.50
2022-08-16T13:31:28.609Z,43.80
2022-08-16T13:35:11.629Z,46.80
2022-08-16T13:38:53.773Z,49.20
2022-08-16T13:42:41.463Z,52.20
2022-08-16T13:46:26.271Z,57.90
2022-08-16T13:50:09.816Z,69.30
2022-08-16T13:53:59.987Z,73.40
2022-08-16T13:58:34.942Z,74.80
2022-08-16T14:01:55.965Z,78.00
2022-08-16T14:05:38.722Z,79.80
2022-08-16T14:09:20.519Z,79.20
2022-08-16T14:13:02.828Z,80.10
2022-08-16T14:16:45.168Z,83.10
2022-08-16T14:20:27.031Z,82.80
2022-08-16T14:24:22.334Z,84.20
2022-08-16T14:28:10.746Z,84.20
2022-08-16T14:31:58.369Z,84.70
2022-08-16T14:35:49.268Z,84.50
2022-08-16T14:39:33.080Z,85.50
2022-08-16T14:43:15.596Z,85.70
2022-08-16T14:46:57.516Z,86.40
2022-08-16T14:50:39.781Z,85.10
2022-08-16T14:54:21.884Z,85.40
2022-08-16T14:58:18.894Z,84.50
2022-08-16T15:02:02.888Z,85.50
2022-08-16T15:05:47.230Z,85.00
2022-08-16T15:09:30.457Z,85.00
2022-08-16T15:13:12.819Z,87.20
2022-08-16T15:16:56.885Z,89.80
2022-08-16T15:20:39.165Z,89.30
2022-08-16T15:24:22.512Z,90.30
2022-08-16T15:28:06.771Z,90.90
2022-08-16T15:32:06.146Z,91.20
2022-08-16T15:35:52.557Z,91.20
2022-08-16T15:39:39.788Z,91.10
2022-08-16T15:43:22.079Z,91.50
2022-08-16T15:47:14.658Z,91.90
2022-08-16T15:51:05.373Z,92.30
2022-08-16T15:54:53.361Z,92.40
2022-08-16T15:58:38.518Z,92.80
2022-08-16T16:02:29.280Z,92.30
2022-08-16T16:06:16.808Z,92.60
2022-08-16T16:10:00.804Z,93.00
2022-08-16T16:13:43.091Z,92.60
2022-08-16T16:17:25.404Z,93.20
2022-08-16T16:21:19.962Z,92.40
2022-08-16T16:25:02.625Z,92.80
2022-08-16T16:29:07.571Z,92.10
2022-08-16T16:32:51.587Z,92.10
2022-08-16T16:36:34.557Z,92.30
2022-08-16T16:40:23.783Z,92.40
2022-08-16T16:44:10.686Z,93.00
2022-08-16T16:48:12.324Z,92.60
2022-08-16T16:52:00.044Z,92.90
2022-08-16T16:55:52.159Z,92.80
2022-08-16T16:59:34.335Z,92.70
2022-08-16T17:03:17.775Z,92.80
2022-08-16T17:07:01.146Z,92.90
2022-08-16T17:10:46.678Z,93.20
2022-08-16T17:14:33.019Z,93.30
2022-08-16T17:19:15.002Z,93.30
2022-08-16T17:22:21.559Z,93.30
2022-08-16T17:26:03.423Z,93.50
2022-08-16T17:29:54.116Z,93.70
2022-08-16T17:33:54.943Z,93.50
2022-08-16T17:37:48.705Z,94.10
2022-08-16T17:41:33.560Z,93.50
2022-08-16T17:45:15.367Z,93.70
2022-08-16T17:48:57.462Z,93.70
2022-08-16T17:52:48.956Z,93.90
2022-08-16T17:56:31.865Z,93.90
2022-08-16T18:00:19.786Z,94.20
2022-08-16T18:04:08.714Z,94.00
2022-08-16T18:07:52.807Z,94.10
2022-08-16T18:11:41.011Z,93.50
2022-08-16T18:15:24.929Z,93.70
2022-08-16T18:19:06.794Z,94.00
2022-08-16T18:22:48.711Z,93.20
2022-08-16T18:26:31.058Z,93.20
2022-08-16T18:30:17.664Z,92.90
2022-08-16T18:33:59.882Z,93.30
2022-08-16T18:37:42.848Z,92.90
2022-08-16T18:41:26.312Z,92.60
2022-08-16T18:45:08.908Z,92.90
2022-08-16T18:48:50.783Z,92.90
2022-08-16T18:52:33.417Z,92.70
2022-08-16T18:56:15.281Z,92.60
2022-08-16T18:59:57.269Z,92.80
2022-08-16T19:03:39.088Z,92.70
2022-08-16T19:07:20.988Z,92.90
2022-08-16T19:11:05.128Z,92.90
2022-08-16T19:14:47.995Z,92.70
2022-08-16T19:18:36.694Z,92.70
2022-08-16T19:22:51.994Z,92.80
2022-08-16T19:26:32.202Z,93.10
2022-08-16T19:30:15.892Z,93.30
2022-08-16T19:33:58.724Z,93.40
2022-08-16T19:37:46.346Z,93.40
2022-08-16T19:41:28.717Z,93.50
2022-08-16T19:45:13.840Z,93.70
2022-08-16T19:48:55.648Z,93.80
2022-08-16T19:52:38.450Z,93.70
2022-08-16T19:56:22.344Z,93.60
2022-08-16T20:00:14.340Z,93.60
2022-08-16T20:03:56.628Z,93.40
2022-08-16T20:07:38.517Z,93.00
2022-08-16T20:11:20.408Z,93.00
2022-08-16T20:15:03.013Z,93.20
2022-08-16T20:18:45.327Z,93.10
2022-08-16T20:22:52.617Z,93.10
2022-08-16T20:26:34.690Z,93.10
2022-08-16T20:30:17.359Z,92.70
2022-08-16T20:33:59.196Z,92.80
2022-08-16T20:37:42.658Z,92.70
2022-08-16T20:41:24.543Z,92.90
2022-08-16T20:45:10.024Z,92.90
2022-08-16T20:48:52.028Z,92.90
2022-08-16T20:52:33.923Z,92.80
2022-08-16T20:56:15.709Z,92.80
2022-08-16T20:59:57.721Z,92.80
2022-08-16T21:03:39.613Z,92.80
2022-08-16T21:07:21.691Z,93.00
2022-08-16T21:11:06.141Z,92.90
2022-08-16T21:14:48.132Z,93.00
2022-08-16T21:18:30.041Z,92.80
2022-08-16T21:22:21.340Z,93.00
2022-08-16T21:26:07.386Z,92.70
2022-08-16T21:29:54.708Z,92.80
2022-08-16T21:33:38.053Z,92.70
2022-08-16T21:37:19.978Z,92.60
2022-08-16T21:41:06.376Z,92.80
2022-08-16T21:44:48.288Z,92.90
2022-08-16T21:48:33.824Z,92.90
2022-08-16T21:52:26.613Z,92.90
2022-08-16T21:56:12.570Z,93.40
2022-08-16T21:59:58.863Z,93.60
2022-08-16T22:03:40.687Z,93.50
2022-08-16T22:07:22.508Z,93.50
2022-08-16T22:11:09.274Z,93.40
2022-08-16T22:14:51.817Z,93.40
2022-08-16T22:18:33.657Z,93.80
2022-08-16T22:22:16.168Z,93.60
2022-08-16T22:25:58.593Z,94.00
2022-08-16T22:29:42.140Z,94.10
2022-08-16T22:33:26.967Z,94.30
2022-08-16T22:37:08.824Z,94.30
2022-08-16T22:40:50.871Z,94.40
2022-08-16T22:44:32.679Z,94.30
2022-08-16T22:48:15.597Z,94.40
2022-08-16T22:52:08.144Z,94.40
2022-08-16T22:55:50.323Z,94.30
2022-08-16T22:59:33.113Z,94.40
2022-08-16T23:03:17.610Z,94.20
2022-08-16T23:06:59.895Z,94.50
2022-08-16T23:10:44.392Z,94.50
2022-08-16T23:14:26.229Z,94.60
2022-08-16T23:18:08.409Z,94.80
2022-08-16T23:21:50.322Z,94.50
2022-08-16T23:25:35.345Z,94.80
2022-08-16T23:29:25.551Z,94.90
2022-08-16T23:33:11.271Z,95.10
2022-08-16T23:36:53.099Z,94.80
2022-08-16T23:40:36.378Z,94.80
2022-08-16T23:44:44.095Z,94.80
2022-08-16T23:48:23.504Z,94.70
2022-08-16T23:52:11.050Z,94.80
2022-08-16T23:56:02.415Z,94.60
2022-08-16T23:59:53.821Z,94.60
